sensor_id;sensor_type;location;lat;lon;timestamp;temperature;humidity
17587;DHT22;8912;52.336;17.172;2022-07-01T00:00:24;21.70;99.90
17587;DHT22;8912;52.336;17.172;2022-07-01T00:02:53;21.70;99.90
17587;DHT22;8912;52.336;17.172;2022-07-01T00:05:22;21.70;99.90
17587;DHT22;8912;52.336;17.172;2022-07-01T00:07:52;21.60;99.90
17587;DHT22;8912;52.336;17.172;2022-07-01T00:10:20;21.50;99.90
17587;DHT22;8912;52.336;17.172;2022-07-01T00:12:49;21.50;99.90
17587;DHT22;8912;52.336;17.172;2022-07-01T00:15:18;21.50;99.90
17587;DHT22;8912;52.336;17.172;2022-07-01T00:17:47;21.40;99.90
17587;DHT22;8912;52.336;17.172;2022-07-01T00:20:16;21.40;99.90
17587;DHT22;8912;52.336;17.172;2022-07-01T00:22:45;21.40;99.90
17587;DHT22;8912;52.336;17.172;2022-07-01T00:25:15;21.40;99.90
17587;DHT22;8912;52.336;17.172;2022-07-01T00:27:44;21.30;99.90
17587;DHT22;8912;52.336;17.172;2022-07-01T00:30:14;21.50;99.90
17587;DHT22;8912;52.336;17.172;2022-07-01T00:32:43;21.50;99.90
17587;DHT22;8912;52.336;17.172;2022-07-01T00:35:14;21.40;99.90
17587;DHT22;8912;52.336;17.172;2022-07-01T00:37:42;21.10;99.90
17587;DHT22;8912;52.336;17.172;2022-07-01T00:40:12;21.00;99.90
17587;DHT22;8912;52.336;17.172;2022-07-01T00:42:42;21.00;99.90
17587;DHT22;8912;52.336;17.172;2022-07-01T00:45:12;21.10;99.90
17587;DHT22;8912;52.336;17.172;2022-07-01T00:47:42;21.00;99.90
17587;DHT22;8912;52.336;17.172;2022-07-01T00:50:13;21.10;99.90
17587;DHT22;8912;52.336;17.172;2022-07-01T00:52:44;21.30;99.90
17587;DHT22;8912;52.336;17.172;2022-07-01T00:55:14;21.40;99.90
17587;DHT22;8912;52.336;17.172;2022-07-01T00:57:45;21.40;99.90
17587;DHT22;8912;52.336;17.172;2022-07-01T01:00:15;21.30;99.90
17587;DHT22;8912;52.336;17.172;2022-07-01T01:02:46;21.40;99.90
17587;DHT22;8912;52.336;17.172;2022-07-01T01:05:14;21.40;99.90
17587;DHT22;8912;52.336;17.172;2022-07-01T01:07:45;21.30;99.90
17587;DHT22;8912;52.336;17.172;2022-07-01T01:10:14;21.20;99.90
17587;DHT22;8912;52.336;17.172;2022-07-01T01:12:44;21.10;99.90
17587;DHT22;8912;52.336;17.172;2022-07-01T01:15:17;21.00;99.90
17587;DHT22;8912;52.336;17.172;2022-07-01T01:17:46;21.00;99.90
17587;DHT22;8912;52.336;17.172;2022-07-01T01:20:17;21.00;99.90
17587;DHT22;8912;52.336;17.172;2022-07-01T01:22:47;20.90;99.90
17587;DHT22;8912;52.336;17.172;2022-07-01T01:25:17;20.90;99.90
17587;DHT22;8912;52.336;17.172;2022-07-01T01:27:45;20.90;99.90
17587;DHT22;8912;52.336;17.172;2022-07-01T01:30:14;20.90;99.90
17587;DHT22;8912;52.336;17.172;2022-07-01T01:32:43;20.90;99.90
17587;DHT22;8912;52.336;17.172;2022-07-01T01:35:11;20.90;99.90
17587;DHT22;8912;52.336;17.172;2022-07-01T01:37:41;20.90;99.90
17587;DHT22;8912;52.336;17.172;2022-07-01T01:40:13;20.90;99.90
17587;DHT22;8912;52.336;17.172;2022-07-01T01:42:42;21.00;99.90
17587;DHT22;8912;52.336;17.172;2022-07-01T01:45:12;21.10;99.90
17587;DHT22;8912;52.336;17.172;2022-07-01T01:47:41;21.00;99.90
17587;DHT22;8912;52.336;17.172;2022-07-01T01:50:11;21.00;99.90
17587;DHT22;8912;52.336;17.172;2022-07-01T01:52:41;21.00;99.90
17587;DHT22;8912;52.336;17.172;2022-07-01T01:55:12;21.00;99.90
17587;DHT22;8912;52.336;17.172;2022-07-01T01:57:41;21.00;99.90
17587;DHT22;8912;52.336;17.172;2022-07-01T02:00:11;21.00;99.90
17587;DHT22;8912;52.336;17.172;2022-07-01T02:02:40;21.10;99.90
17587;DHT22;8912;52.336;17.172;2022-07-01T02:05:12;21.10;99.90
17587;DHT22;8912;52.336;17.172;2022-07-01T02:07:40;21.20;99.90
17587;DHT22;8912;52.336;17.172;2022-07-01T02:10:09;21.10;99.90
17587;DHT22;8912;52.336;17.172;2022-07-01T02:12:40;21.00;99.90
17587;DHT22;8912;52.336;17.172;2022-07-01T02:15:09;20.90;99.90
17587;DHT22;8912;52.336;17.172;2022-07-01T02:17:38;20.70;99.90
17587;DHT22;8912;52.336;17.172;2022-07-01T02:20:08;20.60;99.90
17587;DHT22;8912;52.336;17.172;2022-07-01T02:22:37;20.70;99.90
17587;DHT22;8912;52.336;17.172;2022-07-01T02:25:06;20.80;99.90
17587;DHT22;8912;52.336;17.172;2022-07-01T02:27:34;20.80;99.90
17587;DHT22;8912;52.336;17.172;2022-07-01T02:30:06;20.80;99.90
17587;DHT22;8912;52.336;17.172;2022-07-01T02:32:35;20.80;99.90
17587;DHT22;8912;52.336;17.172;2022-07-01T02:35:04;20.70;99.90
17587;DHT22;8912;52.336;17.172;2022-07-01T02:37:33;20.60;99.90
17587;DHT22;8912;52.336;17.172;2022-07-01T02:40:03;20.30;99.90
17587;DHT22;8912;52.336;17.172;2022-07-01T02:42:32;20.20;99.90
17587;DHT22;8912;52.336;17.172;2022-07-01T02:45:07;20.20;99.90
17587;DHT22;8912;52.336;17.172;2022-07-01T02:47:36;20.10;99.90
17587;DHT22;8912;52.336;17.172;2022-07-01T02:50:07;20.20;99.90
17587;DHT22;8912;52.336;17.172;2022-07-01T02:52:37;20.20;99.90
17587;DHT22;8912;52.336;17.172;2022-07-01T02:55:09;20.20;99.90
17587;DHT22;8912;52.336;17.172;2022-07-01T02:57:39;20.30;99.90
17587;DHT22;8912;52.336;17.172;2022-07-01T03:00:12;20.50;99.90
17587;DHT22;8912;52.336;17.172;2022-07-01T03:02:41;20.60;99.90
17587;DHT22;8912;52.336;17.172;2022-07-01T03:05:10;20.70;99.90
17587;DHT22;8912;52.336;17.172;2022-07-01T03:07:39;20.80;99.90
17587;DHT22;8912;52.336;17.172;2022-07-01T03:10:08;20.80;99.90
17587;DHT22;8912;52.336;17.172;2022-07-01T03:12:37;20.90;99.90
17587;DHT22;8912;52.336;17.172;2022-07-01T03:15:11;21.00;99.90
17587;DHT22;8912;52.336;17.172;2022-07-01T03:17:41;21.00;99.90
17587;DHT22;8912;52.336;17.172;2022-07-01T03:20:12;21.10;99.90
17587;DHT22;8912;52.336;17.172;2022-07-01T03:22:42;21.30;99.90
17587;DHT22;8912;52.336;17.172;2022-07-01T03:25:12;21.60;99.90
17587;DHT22;8912;52.336;17.172;2022-07-01T03:27:41;22.20;99.90
17587;DHT22;8912;52.336;17.172;2022-07-01T03:30:15;22.30;99.90
17587;DHT22;8912;52.336;17.172;2022-07-01T03:32:45;22.30;99.90
17587;DHT22;8912;52.336;17.172;2022-07-01T03:35:14;22.30;99.90
17587;DHT22;8912;52.336;17.172;2022-07-01T03:38:01;22.30;99.90
17587;DHT22;8912;52.336;17.172;2022-07-01T03:40:31;23.10;99.90
17587;DHT22;8912;52.336;17.172;2022-07-01T03:43:00;23.90;99.90
17587;DHT22;8912;52.336;17.172;2022-07-01T03:45:31;24.20;99.90
17587;DHT22;8912;52.336;17.172;2022-07-01T03:48:00;24.50;99.90
17587;DHT22;8912;52.336;17.172;2022-07-01T03:50:29;24.50;99.90
17587;DHT22;8912;52.336;17.172;2022-07-01T03:52:58;24.60;99.90
17587;DHT22;8912;52.336;17.172;2022-07-01T03:55:44;24.60;99.90
17587;DHT22;8912;52.336;17.172;2022-07-01T03:58:13;24.50;99.90
17587;DHT22;8912;52.336;17.172;2022-07-01T04:00:43;24.50;99.90
17587;DHT22;8912;52.336;17.172;2022-07-01T04:03:13;24.30;99.90
17587;DHT22;8912;52.336;17.172;2022-07-01T04:05:42;24.50;99.90
17587;DHT22;8912;52.336;17.172;2022-07-01T04:08:11;24.30;99.90
17587;DHT22;8912;52.336;17.172;2022-07-01T04:10:41;24.20;99.90
17587;DHT22;8912;52.336;17.172;2022-07-01T04:13:10;24.30;99.90
17587;DHT22;8912;52.336;17.172;2022-07-01T04:15:59;24.70;99.90
17587;DHT22;8912;52.336;17.172;2022-07-01T04:18:29;25.60;99.90
17587;DHT22;8912;52.336;17.172;2022-07-01T04:20:59;26.30;99.90
17587;DHT22;8912;52.336;17.172;2022-07-01T04:23:45;26.80;99.90
17587;DHT22;8912;52.336;17.172;2022-07-01T04:26:14;27.00;99.90
17587;DHT22;8912;52.336;17.172;2022-07-01T04:29:04;27.40;99.90
17587;DHT22;8912;52.336;17.172;2022-07-01T04:31:35;27.80;99.90
17587;DHT22;8912;52.336;17.172;2022-07-01T04:34:04;27.60;99.90
17587;DHT22;8912;52.336;17.172;2022-07-01T04:36:33;27.80;99.90
17587;DHT22;8912;52.336;17.172;2022-07-01T04:39:03;28.10;99.90
17587;DHT22;8912;52.336;17.172;2022-07-01T04:41:32;28.80;99.90
17587;DHT22;8912;52.336;17.172;2022-07-01T04:44:19;29.50;99.90
17587;DHT22;8912;52.336;17.172;2022-07-01T04:46:49;28.80;99.90
17587;DHT22;8912;52.336;17.172;2022-07-01T04:49:19;27.70;99.90
17587;DHT22;8912;52.336;17.172;2022-07-01T04:51:48;26.70;99.90
17587;DHT22;8912;52.336;17.172;2022-07-01T04:54:17;26.20;99.90
17587;DHT22;8912;52.336;17.172;2022-07-01T04:56:46;25.70;99.90
17587;DHT22;8912;52.336;17.172;2022-07-01T04:59:15;25.20;99.90
17587;DHT22;8912;52.336;17.172;2022-07-01T05:01:45;24.70;99.90
17587;DHT22;8912;52.336;17.172;2022-07-01T05:04:18;24.40;99.90
17587;DHT22;8912;52.336;17.172;2022-07-01T05:06:47;24.20;99.90
17587;DHT22;8912;52.336;17.172;2022-07-01T05:09:16;24.20;99.90
17587;DHT22;8912;52.336;17.172;2022-07-01T05:11:47;25.00;99.90
17587;DHT22;8912;52.336;17.172;2022-07-01T05:14:16;26.00;99.90
17587;DHT22;8912;52.336;17.172;2022-07-01T05:16:45;26.80;99.90
17587;DHT22;8912;52.336;17.172;2022-07-01T05:19:14;27.40;99.90
17587;DHT22;8912;52.336;17.172;2022-07-01T05:22:02;27.90;99.90
17587;DHT22;8912;52.336;17.172;2022-07-01T05:24:32;28.50;99.90
17587;DHT22;8912;52.336;17.172;2022-07-01T05:27:01;28.30;99.90
17587;DHT22;8912;52.336;17.172;2022-07-01T05:29:30;28.20;99.90
17587;DHT22;8912;52.336;17.172;2022-07-01T05:31:59;28.00;99.90
17587;DHT22;8912;52.336;17.172;2022-07-01T05:34:28;28.40;99.90
17587;DHT22;8912;52.336;17.172;2022-07-01T05:36:57;28.90;99.90
17587;DHT22;8912;52.336;17.172;2022-07-01T05:39:27;29.10;99.90
17587;DHT22;8912;52.336;17.172;2022-07-01T05:41:56;28.90;99.90
17587;DHT22;8912;52.336;17.172;2022-07-01T05:44:25;28.50;99.90
17587;DHT22;8912;52.336;17.172;2022-07-01T05:46:53;28.00;99.90
17587;DHT22;8912;52.336;17.172;2022-07-01T05:49:22;27.30;99.90
17587;DHT22;8912;52.336;17.172;2022-07-01T05:51:51;26.80;99.90
17587;DHT22;8912;52.336;17.172;2022-07-01T05:54:19;26.60;99.90
17587;DHT22;8912;52.336;17.172;2022-07-01T05:56:49;26.50;99.90
17587;DHT22;8912;52.336;17.172;2022-07-01T05:59:18;26.40;99.90
17587;DHT22;8912;52.336;17.172;2022-07-01T06:01:47;26.50;99.90
17587;DHT22;8912;52.336;17.172;2022-07-01T06:04:18;26.40;99.90
17587;DHT22;8912;52.336;17.172;2022-07-01T06:06:46;26.50;99.90
17587;DHT22;8912;52.336;17.172;2022-07-01T06:09:15;26.60;99.90
17587;DHT22;8912;52.336;17.172;2022-07-01T06:11:43;26.60;99.90
17587;DHT22;8912;52.336;17.172;2022-07-01T06:14:14;26.70;99.90
17587;DHT22;8912;52.336;17.172;2022-07-01T06:16:43;26.80;99.90
17587;DHT22;8912;52.336;17.172;2022-07-01T06:19:12;26.90;99.90
17587;DHT22;8912;52.336;17.172;2022-07-01T06:21:41;27.00;99.90
17587;DHT22;8912;52.336;17.172;2022-07-01T06:24:09;27.00;99.90
17587;DHT22;8912;52.336;17.172;2022-07-01T06:26:38;27.00;99.90
17587;DHT22;8912;52.336;17.172;2022-07-01T06:29:07;27.10;99.90
17587;DHT22;8912;52.336;17.172;2022-07-01T06:31:37;27.30;99.90
17587;DHT22;8912;52.336;17.172;2022-07-01T06:34:06;27.60;99.90
17587;DHT22;8912;52.336;17.172;2022-07-01T06:36:35;27.70;99.90
17587;DHT22;8912;52.336;17.172;2022-07-01T06:39:04;27.90;99.90
17587;DHT22;8912;52.336;17.172;2022-07-01T06:41:33;27.90;99.90
17587;DHT22;8912;52.336;17.172;2022-07-01T06:44:02;27.80;99.90
17587;DHT22;8912;52.336;17.172;2022-07-01T06:46:32;27.80;99.90
17587;DHT22;8912;52.336;17.172;2022-07-01T06:49:02;27.90;99.90
17587;DHT22;8912;52.336;17.172;2022-07-01T06:51:31;27.90;99.90
17587;DHT22;8912;52.336;17.172;2022-07-01T06:54:00;28.00;99.90
17587;DHT22;8912;52.336;17.172;2022-07-01T06:56:28;28.30;99.90
17587;DHT22;8912;52.336;17.172;2022-07-01T06:58:57;28.50;99.90
17587;DHT22;8912;52.336;17.172;2022-07-01T07:01:27;28.60;99.90
17587;DHT22;8912;52.336;17.172;2022-07-01T07:03:56;28.80;99.90
17587;DHT22;8912;52.336;17.172;2022-07-01T07:06:27;28.60;99.90
17587;DHT22;8912;52.336;17.172;2022-07-01T07:08:56;28.70;99.90
17587;DHT22;8912;52.336;17.172;2022-07-01T07:11:25;28.70;99.90
17587;DHT22;8912;52.336;17.172;2022-07-01T07:13:54;28.50;99.90
17587;DHT22;8912;52.336;17.172;2022-07-01T07:16:23;28.40;99.90
17587;DHT22;8912;52.336;17.172;2022-07-01T07:18:54;28.30;99.90
17587;DHT22;8912;52.336;17.172;2022-07-01T07:21:22;28.40;99.90
17587;DHT22;8912;52.336;17.172;2022-07-01T07:23:53;28.50;99.90
17587;DHT22;8912;52.336;17.172;2022-07-01T07:26:22;28.30;99.90
17587;DHT22;8912;52.336;17.172;2022-07-01T07:28:51;28.60;99.90
17587;DHT22;8912;52.336;17.172;2022-07-01T07:31:20;28.50;99.90
17587;DHT22;8912;52.336;17.172;2022-07-01T07:33:49;28.70;99.90
17587;DHT22;8912;52.336;17.172;2022-07-01T07:36:18;29.00;99.90
17587;DHT22;8912;52.336;17.172;2022-07-01T07:38:47;28.80;99.90
17587;DHT22;8912;52.336;17.172;2022-07-01T07:41:17;28.60;99.90
17587;DHT22;8912;52.336;17.172;2022-07-01T07:43:46;28.80;99.90
17587;DHT22;8912;52.336;17.172;2022-07-01T07:46:16;28.70;99.90
17587;DHT22;8912;52.336;17.172;2022-07-01T07:48:45;28.80;99.90
17587;DHT22;8912;52.336;17.172;2022-07-01T07:51:14;28.60;99.90
17587;DHT22;8912;52.336;17.172;2022-07-01T07:53:52;28.60;99.90
17587;DHT22;8912;52.336;17.172;2022-07-01T07:56:22;28.90;99.90
17587;DHT22;8912;52.336;17.172;2022-07-01T07:58:51;28.70;99.90
17587;DHT22;8912;52.336;17.172;2022-07-01T08:01:20;28.70;99.90
17587;DHT22;8912;52.336;17.172;2022-07-01T08:03:48;28.90;99.90
17587;DHT22;8912;52.336;17.172;2022-07-01T08:06:17;28.90;99.90
17587;DHT22;8912;52.336;17.172;2022-07-01T08:08:46;28.80;99.90
17587;DHT22;8912;52.336;17.172;2022-07-01T08:11:15;28.80;99.90
17587;DHT22;8912;52.336;17.172;2022-07-01T08:13:45;29.00;99.90
17587;DHT22;8912;52.336;17.172;2022-07-01T08:16:14;28.80;99.90
17587;DHT22;8912;52.336;17.172;2022-07-01T08:18:43;28.70;99.90
17587;DHT22;8912;52.336;17.172;2022-07-01T08:21:12;28.50;99.90
17587;DHT22;8912;52.336;17.172;2022-07-01T08:23:41;28.60;99.90
17587;DHT22;8912;52.336;17.172;2022-07-01T08:26:09;28.60;99.90
17587;DHT22;8912;52.336;17.172;2022-07-01T08:28:40;29.10;99.90
17587;DHT22;8912;52.336;17.172;2022-07-01T08:31:10;29.10;99.90
17587;DHT22;8912;52.336;17.172;2022-07-01T08:33:39;29.00;99.90
17587;DHT22;8912;52.336;17.172;2022-07-01T08:36:09;29.20;99.90
17587;DHT22;8912;52.336;17.172;2022-07-01T08:38:41;29.20;99.90
17587;DHT22;8912;52.336;17.172;2022-07-01T08:41:13;29.50;99.90
17587;DHT22;8912;52.336;17.172;2022-07-01T08:43:42;29.50;99.50
17587;DHT22;8912;52.336;17.172;2022-07-01T08:46:12;29.40;99.90
17587;DHT22;8912;52.336;17.172;2022-07-01T08:48:42;29.50;99.90
17587;DHT22;8912;52.336;17.172;2022-07-01T08:51:12;29.80;99.50
17587;DHT22;8912;52.336;17.172;2022-07-01T08:53:41;29.80;99.90
17587;DHT22;8912;52.336;17.172;2022-07-01T08:56:10;30.30;99.80
17587;DHT22;8912;52.336;17.172;2022-07-01T08:58:56;30.30;99.10
17587;DHT22;8912;52.336;17.172;2022-07-01T09:01:26;30.40;96.50
17587;DHT22;8912;52.336;17.172;2022-07-01T09:03:56;30.70;97.20
17587;DHT22;8912;52.336;17.172;2022-07-01T09:06:40;30.50;99.10
17587;DHT22;8912;52.336;17.172;2022-07-01T09:09:13;30.80;95.70
17587;DHT22;8912;52.336;17.172;2022-07-01T09:11:44;30.90;98.10
17587;DHT22;8912;52.336;17.172;2022-07-01T09:14:15;31.10;94.30
17587;DHT22;8912;52.336;17.172;2022-07-01T09:16:48;30.80;96.40
17587;DHT22;8912;52.336;17.172;2022-07-01T09:19:19;30.40;98.90
17587;DHT22;8912;52.336;17.172;2022-07-01T09:21:49;30.50;98.50
17587;DHT22;8912;52.336;17.172;2022-07-01T09:24:27;30.80;98.80
17587;DHT22;8912;52.336;17.172;2022-07-01T09:26:58;31.00;97.80
17587;DHT22;8912;52.336;17.172;2022-07-01T09:29:30;30.70;96.50
17587;DHT22;8912;52.336;17.172;2022-07-01T09:32:04;30.40;99.50
17587;DHT22;8912;52.336;17.172;2022-07-01T09:34:35;30.40;95.60
17587;DHT22;8912;52.336;17.172;2022-07-01T09:37:05;30.60;99.90
17587;DHT22;8912;52.336;17.172;2022-07-01T09:39:42;30.70;97.10
17587;DHT22;8912;52.336;17.172;2022-07-01T09:42:11;31.10;96.20
17587;DHT22;8912;52.336;17.172;2022-07-01T09:44:52;31.10;98.50
17587;DHT22;8912;52.336;17.172;2022-07-01T09:47:30;30.80;96.80
17587;DHT22;8912;52.336;17.172;2022-07-01T09:50:00;30.70;98.10
17587;DHT22;8912;52.336;17.172;2022-07-01T09:52:29;30.80;98.30
17587;DHT22;8912;52.336;17.172;2022-07-01T09:55:04;30.80;96.40
17587;DHT22;8912;52.336;17.172;2022-07-01T09:57:33;31.00;96.90
17587;DHT22;8912;52.336;17.172;2022-07-01T10:00:04;31.20;99.10
17587;DHT22;8912;52.336;17.172;2022-07-01T10:02:36;31.30;94.50
17587;DHT22;8912;52.336;17.172;2022-07-01T10:05:08;31.20;96.20
17587;DHT22;8912;52.336;17.172;2022-07-01T10:07:45;31.40;95.70
17587;DHT22;8912;52.336;17.172;2022-07-01T10:10:32;31.30;97.60
17587;DHT22;8912;52.336;17.172;2022-07-01T10:13:07;31.30;93.40
17587;DHT22;8912;52.336;17.172;2022-07-01T10:15:37;31.80;97.50
17587;DHT22;8912;52.336;17.172;2022-07-01T10:18:20;31.60;93.50
17587;DHT22;8912;52.336;17.172;2022-07-01T10:20:50;31.50;96.00
17587;DHT22;8912;52.336;17.172;2022-07-01T10:23:20;31.50;93.20
17587;DHT22;8912;52.336;17.172;2022-07-01T10:25:50;32.10;92.80
17587;DHT22;8912;52.336;17.172;2022-07-01T10:28:22;32.50;91.90
17587;DHT22;8912;52.336;17.172;2022-07-01T10:30:53;32.30;91.10
17587;DHT22;8912;52.336;17.172;2022-07-01T10:33:39;31.90;90.10
17587;DHT22;8912;52.336;17.172;2022-07-01T10:36:12;31.70;91.30
17587;DHT22;8912;52.336;17.172;2022-07-01T10:39:10;31.90;93.90
17587;DHT22;8912;52.336;17.172;2022-07-01T10:41:43;32.20;92.60
17587;DHT22;8912;52.336;17.172;2022-07-01T10:44:59;32.20;93.70
17587;DHT22;8912;52.336;17.172;2022-07-01T10:47:29;32.20;92.30
17587;DHT22;8912;52.336;17.172;2022-07-01T10:50:03;32.50;92.30
17587;DHT22;8912;52.336;17.172;2022-07-01T10:52:32;32.30;92.40
17587;DHT22;8912;52.336;17.172;2022-07-01T10:55:03;32.50;92.00
17587;DHT22;8912;52.336;17.172;2022-07-01T10:57:40;32.90;91.70
17587;DHT22;8912;52.336;17.172;2022-07-01T11:00:28;33.00;91.40
17587;DHT22;8912;52.336;17.172;2022-07-01T11:03:20;33.20;91.30
17587;DHT22;8912;52.336;17.172;2022-07-01T11:05:54;32.80;86.80
17587;DHT22;8912;52.336;17.172;2022-07-01T11:08:23;32.80;88.50
17587;DHT22;8912;52.336;17.172;2022-07-01T11:10:59;32.70;88.50
17587;DHT22;8912;52.336;17.172;2022-07-01T11:13:30;32.60;88.30
17587;DHT22;8912;52.336;17.172;2022-07-01T11:15:59;32.70;86.90
17587;DHT22;8912;52.336;17.172;2022-07-01T11:18:30;32.70;88.70
17587;DHT22;8912;52.336;17.172;2022-07-01T11:21:06;32.80;87.90
17587;DHT22;8912;52.336;17.172;2022-07-01T11:23:35;33.20;88.60
17587;DHT22;8912;52.336;17.172;2022-07-01T11:26:21;33.10;89.70
17587;DHT22;8912;52.336;17.172;2022-07-01T11:28:50;33.20;90.00
17587;DHT22;8912;52.336;17.172;2022-07-01T11:31:29;33.00;88.80
17587;DHT22;8912;52.336;17.172;2022-07-01T11:33:59;32.70;90.80
17587;DHT22;8912;52.336;17.172;2022-07-01T11:36:29;33.00;90.60
17587;DHT22;8912;52.336;17.172;2022-07-01T11:39:17;33.10;91.00
17587;DHT22;8912;52.336;17.172;2022-07-01T11:41:53;33.00;90.40
17587;DHT22;8912;52.336;17.172;2022-07-01T11:44:29;32.80;88.50
17587;DHT22;8912;52.336;17.172;2022-07-01T11:46:59;32.80;88.30
17587;DHT22;8912;52.336;17.172;2022-07-01T11:49:28;33.20;90.90
17587;DHT22;8912;52.336;17.172;2022-07-01T11:52:01;33.50;88.80
17587;DHT22;8912;52.336;17.172;2022-07-01T11:54:33;33.50;87.60
17587;DHT22;8912;52.336;17.172;2022-07-01T11:57:11;33.30;86.80
17587;DHT22;8912;52.336;17.172;2022-07-01T11:59:41;33.20;89.20
17587;DHT22;8912;52.336;17.172;2022-07-01T12:02:12;33.40;88.30
17587;DHT22;8912;52.336;17.172;2022-07-01T12:04:42;33.70;88.80
17587;DHT22;8912;52.336;17.172;2022-07-01T12:07:15;33.80;89.60
17587;DHT22;8912;52.336;17.172;2022-07-01T12:09:44;33.80;86.20
17587;DHT22;8912;52.336;17.172;2022-07-01T12:12:17;33.90;83.90
17587;DHT22;8912;52.336;17.172;2022-07-01T12:14:50;33.50;85.40
17587;DHT22;8912;52.336;17.172;2022-07-01T12:17:21;33.40;89.30
17587;DHT22;8912;52.336;17.172;2022-07-01T12:19:51;33.50;85.00
17587;DHT22;8912;52.336;17.172;2022-07-01T12:22:24;33.70;85.20
17587;DHT22;8912;52.336;17.172;2022-07-01T12:25:06;33.90;83.10
17587;DHT22;8912;52.336;17.172;2022-07-01T12:27:35;33.80;79.60
17587;DHT22;8912;52.336;17.172;2022-07-01T12:30:07;33.70;80.80
17587;DHT22;8912;52.336;17.172;2022-07-01T12:32:39;33.80;82.10
17587;DHT22;8912;52.336;17.172;2022-07-01T12:35:09;33.50;80.60
17587;DHT22;8912;52.336;17.172;2022-07-01T12:38:00;33.80;81.10
17587;DHT22;8912;52.336;17.172;2022-07-01T12:40:29;34.20;79.60
17587;DHT22;8912;52.336;17.172;2022-07-01T12:42:58;34.40;78.70
17587;DHT22;8912;52.336;17.172;2022-07-01T12:45:39;34.30;78.50
17587;DHT22;8912;52.336;17.172;2022-07-01T12:48:08;34.60;82.10
17587;DHT22;8912;52.336;17.172;2022-07-01T12:50:37;34.70;77.60
17587;DHT22;8912;52.336;17.172;2022-07-01T12:53:09;34.80;80.20
17587;DHT22;8912;52.336;17.172;2022-07-01T12:55:39;34.60;78.20
17587;DHT22;8912;52.336;17.172;2022-07-01T12:58:10;34.20;80.20
17587;DHT22;8912;52.336;17.172;2022-07-01T13:00:40;33.70;80.80
17587;DHT22;8912;52.336;17.172;2022-07-01T13:03:09;33.70;83.90
17587;DHT22;8912;52.336;17.172;2022-07-01T13:05:39;33.70;84.10
17587;DHT22;8912;52.336;17.172;2022-07-01T13:08:10;33.70;79.70
17587;DHT22;8912;52.336;17.172;2022-07-01T13:10:38;33.60;81.80
17587;DHT22;8912;52.336;17.172;2022-07-01T13:13:07;33.60;83.50
17587;DHT22;8912;52.336;17.172;2022-07-01T13:15:36;33.70;79.30
17587;DHT22;8912;52.336;17.172;2022-07-01T13:18:05;33.90;81.30
17587;DHT22;8912;52.336;17.172;2022-07-01T13:20:35;34.00;82.90
17587;DHT22;8912;52.336;17.172;2022-07-01T13:23:05;34.00;77.60
17587;DHT22;8912;52.336;17.172;2022-07-01T13:25:36;33.80;77.50
17587;DHT22;8912;52.336;17.172;2022-07-01T13:28:05;33.70;79.60
17587;DHT22;8912;52.336;17.172;2022-07-01T13:30:34;33.40;80.90
17587;DHT22;8912;52.336;17.172;2022-07-01T13:33:04;33.30;80.40
17587;DHT22;8912;52.336;17.172;2022-07-01T13:35:33;32.90;92.30
17587;DHT22;8912;52.336;17.172;2022-07-01T13:38:02;32.00;99.60
17587;DHT22;8912;52.336;17.172;2022-07-01T13:40:31;31.30;99.90
17587;DHT22;8912;52.336;17.172;2022-07-01T13:43:01;30.90;99.90
17587;DHT22;8912;52.336;17.172;2022-07-01T13:45:29;29.80;99.40
17587;DHT22;8912;52.336;17.172;2022-07-01T13:47:58;29.20;99.70
17587;DHT22;8912;52.336;17.172;2022-07-01T13:50:27;28.80;99.90
17587;DHT22;8912;52.336;17.172;2022-07-01T13:52:56;28.80;99.90
17587;DHT22;8912;52.336;17.172;2022-07-01T13:55:24;28.70;98.90
17587;DHT22;8912;52.336;17.172;2022-07-01T13:57:53;28.10;97.80
17587;DHT22;8912;52.336;17.172;2022-07-01T14:00:23;28.20;97.40
17587;DHT22;8912;52.336;17.172;2022-07-01T14:02:52;28.40;96.70
17587;DHT22;8912;52.336;17.172;2022-07-01T14:05:20;28.80;99.90
17587;DHT22;8912;52.336;17.172;2022-07-01T14:07:49;29.20;99.90
17587;DHT22;8912;52.336;17.172;2022-07-01T14:10:19;29.60;99.90
17587;DHT22;8912;52.336;17.172;2022-07-01T14:12:48;29.70;99.90
17587;DHT22;8912;52.336;17.172;2022-07-01T14:15:16;29.90;99.90
17587;DHT22;8912;52.336;17.172;2022-07-01T14:17:46;30.10;99.90
17587;DHT22;8912;52.336;17.172;2022-07-01T14:20:15;30.00;99.90
17587;DHT22;8912;52.336;17.172;2022-07-01T14:22:44;29.90;99.90
17587;DHT22;8912;52.336;17.172;2022-07-01T14:25:12;29.80;99.90
17587;DHT22;8912;52.336;17.172;2022-07-01T14:27:41;29.60;99.90
17587;DHT22;8912;52.336;17.172;2022-07-01T14:30:11;29.40;99.90
17587;DHT22;8912;52.336;17.172;2022-07-01T14:32:39;29.00;99.90
17587;DHT22;8912;52.336;17.172;2022-07-01T14:35:10;28.80;99.90
17587;DHT22;8912;52.336;17.172;2022-07-01T14:37:38;28.60;99.90
17587;DHT22;8912;52.336;17.172;2022-07-01T14:40:10;28.30;99.90
17587;DHT22;8912;52.336;17.172;2022-07-01T14:42:40;27.70;99.90
17587;DHT22;8912;52.336;17.172;2022-07-01T14:45:09;26.50;99.90
17587;DHT22;8912;52.336;17.172;2022-07-01T14:47:40;25.60;99.90
17587;DHT22;8912;52.336;17.172;2022-07-01T14:50:11;25.30;99.90
17587;DHT22;8912;52.336;17.172;2022-07-01T14:52:40;25.20;99.90
17587;DHT22;8912;52.336;17.172;2022-07-01T14:55:09;25.00;99.90
17587;DHT22;8912;52.336;17.172;2022-07-01T14:57:38;24.90;99.90
17587;DHT22;8912;52.336;17.172;2022-07-01T15:00:08;25.00;99.90
17587;DHT22;8912;52.336;17.172;2022-07-01T15:02:38;25.00;99.90
17587;DHT22;8912;52.336;17.172;2022-07-01T15:05:07;25.00;99.90
17587;DHT22;8912;52.336;17.172;2022-07-01T15:07:37;25.10;99.90
17587;DHT22;8912;52.336;17.172;2022-07-01T15:10:07;24.80;99.90
17587;DHT22;8912;52.336;17.172;2022-07-01T15:12:37;24.70;99.90
17587;DHT22;8912;52.336;17.172;2022-07-01T15:15:07;24.70;99.90
17587;DHT22;8912;52.336;17.172;2022-07-01T15:17:42;24.50;99.90
17587;DHT22;8912;52.336;17.172;2022-07-01T15:20:12;24.30;99.90
17587;DHT22;8912;52.336;17.172;2022-07-01T15:22:43;24.00;99.90
17587;DHT22;8912;52.336;17.172;2022-07-01T15:25:12;23.70;99.90
17587;DHT22;8912;52.336;17.172;2022-07-01T15:27:41;23.50;99.90
17587;DHT22;8912;52.336;17.172;2022-07-01T15:30:11;23.60;99.90
17587;DHT22;8912;52.336;17.172;2022-07-01T15:32:39;23.70;99.90
17587;DHT22;8912;52.336;17.172;2022-07-01T15:35:09;23.80;99.90
17587;DHT22;8912;52.336;17.172;2022-07-01T15:37:38;23.80;99.90
17587;DHT22;8912;52.336;17.172;2022-07-01T15:40:09;23.70;99.90
17587;DHT22;8912;52.336;17.172;2022-07-01T15:42:38;23.60;99.90
17587;DHT22;8912;52.336;17.172;2022-07-01T15:45:08;23.60;99.90
17587;DHT22;8912;52.336;17.172;2022-07-01T15:47:37;23.60;99.90
17587;DHT22;8912;52.336;17.172;2022-07-01T15:50:23;23.70;99.90
17587;DHT22;8912;52.336;17.172;2022-07-01T15:52:52;23.70;99.90